Terminal Aerodrome Forecast
Issued by NWS

Home | Current Version | Previous Version | Graphics & Text | Print | Product List | Glossary On
Versions: 1 2 3 4 5 6 7 8 9 10 11 12 13 14 15 16 17 18 19 20 21 22 23 24 25 26 27
000
FTUS43 KABR 301729
TAFPIR
TAF
KPIR 301729Z 3018/0118 11013KT P6SM BKN120
     FM010100 12008KT P6SM OVC100
     FM010800 13005KT P6SM VCSH OVC080
     FM011500 14008KT P6SM BKN090=

USA.gov is the U.S. government's official web portal to all federal, state and local government web resources and services.